createdAt,value
2023-02-19T00:00:40.282Z,5.40
2023-02-19T00:03:31.138Z,5.18
2023-02-19T00:06:29.005Z,4.68
2023-02-19T00:09:19.939Z,5.30
2023-02-19T00:12:09.686Z,4.10
2023-02-19T00:14:59.262Z,3.72
2023-02-19T00:17:47.495Z,5.72
2023-02-19T00:20:37.373Z,3.47
2023-02-19T00:23:24.931Z,3.75
2023-02-19T00:26:18.499Z,3.08
2023-02-19T00:29:05.807Z,3.50
2023-02-19T00:32:00.953Z,3.63
2023-02-19T00:34:48.178Z,5.18
2023-02-19T00:37:37.810Z,4.57
2023-02-19T00:40:26.144Z,4.30
2023-02-19T00:43:13.298Z,4.70
2023-02-19T00:46:00.515Z,5.95
2023-02-19T00:48:50.582Z,4.00
2023-02-19T00:51:39.181Z,5.03
2023-02-19T00:54:28.509Z,4.13
2023-02-19T00:57:21.425Z,3.63
2023-02-19T01:00:12.296Z,6.05
2023-02-19T01:02:59.463Z,2.92
2023-02-19T01:05:49.167Z,3.63
2023-02-19T01:08:41.948Z,3.30
2023-02-19T01:14:19.276Z,4.15
2023-02-19T01:17:06.450Z,5.25
2023-02-19T01:19:53.567Z,3.47
2023-02-19T01:22:43.276Z,4.90
2023-02-19T01:25:30.466Z,4.18
2023-02-19T01:28:19.800Z,5.18
2023-02-19T01:31:13.501Z,4.90
2023-02-19T01:34:09.207Z,3.63
2023-02-19T01:36:56.399Z,4.45
2023-02-19T01:39:43.502Z,4.15
2023-02-19T01:42:31.026Z,4.10
2023-02-19T01:45:24.009Z,3.55
2023-02-19T01:51:21.669Z,3.72
2023-02-19T01:54:13.990Z,5.05
2023-02-19T01:57:07.311Z,5.45
2023-02-19T02:00:01.048Z,4.22
2023-02-19T02:02:51.420Z,5.03
2023-02-19T02:05:50.634Z,7.03
2023-02-19T02:08:56.696Z,5.57
2023-02-19T02:11:50.531Z,8.05
2023-02-19T02:14:41.590Z,5.22
2023-02-19T02:17:41.235Z,5.55
2023-02-19T02:20:37.067Z,5.68
2023-02-19T02:24:08.433Z,6.22
2023-02-19T02:26:57.764Z,6.32
2023-02-19T02:30:06.302Z,6.75
2023-02-19T02:33:07.113Z,5.10
2023-02-19T02:36:01.366Z,4.63
2023-02-19T02:38:56.513Z,5.80
2023-02-19T02:42:10.494Z,5.00
2023-02-19T02:45:37.033Z,5.15
2023-02-19T02:48:30.546Z,5.65
2023-02-19T02:51:27.888Z,5.82
2023-02-19T02:54:45.064Z,6.55
2023-02-19T02:57:32.255Z,6.13
2023-02-19T03:00:19.582Z,5.40
2023-02-19T03:03:08.997Z,6.07
2023-02-19T03:06:09.065Z,7.30
2023-02-19T03:09:13.582Z,6.38
2023-02-19T03:12:24.219Z,6.07
2023-02-19T03:15:34.172Z,4.10
2023-02-19T03:18:48.472Z,3.80
2023-02-19T03:21:38.406Z,3.65
2023-02-19T03:24:54.225Z,5.18
2023-02-19T03:27:44.253Z,3.85
2023-02-19T03:30:39.114Z,3.30
2023-02-19T03:33:30.012Z,4.55
2023-02-19T03:36:35.671Z,5.35
2023-02-19T03:39:23.777Z,4.03
2023-02-19T03:42:56.188Z,4.82
2023-02-19T03:45:51.111Z,6.13
2023-02-19T03:49:26.658Z,5.53
2023-02-19T03:52:26.165Z,3.78
2023-02-19T03:55:33.506Z,2.88
2023-02-19T03:58:30.714Z,2.95
2023-02-19T04:01:40.358Z,2.88
2023-02-19T04:04:36.520Z,3.08
2023-02-19T04:07:30.667Z,3.33
2023-02-19T04:10:19.287Z,2.40
2023-02-19T04:13:24.748Z,3.45
2023-02-19T04:16:19.199Z,2.72
2023-02-19T04:19:13.889Z,1.70
2023-02-19T04:22:03.038Z,2.45
2023-02-19T04:24:53.364Z,2.33
2023-02-19T04:27:41.306Z,1.40
2023-02-19T04:30:28.668Z,1.98
2023-02-19T04:33:18.247Z,2.45
2023-02-19T04:36:09.841Z,1.60
2023-02-19T04:38:59.297Z,2.42
2023-02-19T04:41:46.532Z,1.40
2023-02-19T04:44:36.819Z,1.20
2023-02-19T04:47:27.816Z,1.27
2023-02-19T04:50:18.709Z,1.15
2023-02-19T04:53:08.725Z,2.55
2023-02-19T04:55:55.895Z,1.23
2023-02-19T04:58:43.786Z,1.30
2023-02-19T05:01:33.542Z,0.93
2023-02-19T05:04:20.778Z,0.70
2023-02-19T05:07:17.143Z,0.70
2023-02-19T05:13:12.786Z,0.63
2023-02-19T05:16:06.436Z,1.75
2023-02-19T05:18:59.016Z,1.40
2023-02-19T05:21:48.605Z,1.10
2023-02-19T05:24:41.284Z,0.65
2023-02-19T05:30:18.036Z,1.00
2023-02-19T05:33:05.205Z,0.70
2023-02-19T05:35:55.168Z,0.80
2023-02-19T05:38:42.375Z,0.70
2023-02-19T05:41:33.343Z,1.58
2023-02-19T05:44:20.549Z,0.70
2023-02-19T05:47:07.767Z,1.05
2023-02-19T05:49:58.062Z,1.33
2023-02-19T05:52:50.844Z,2.55
2023-02-19T05:55:38.189Z,0.90
2023-02-19T05:58:26.204Z,0.70
2023-02-19T06:01:22.770Z,0.60
2023-02-19T06:04:11.878Z,0.93
2023-02-19T06:06:59.059Z,0.60
2023-02-19T06:09:46.216Z,0.70
2023-02-19T06:12:39.890Z,0.68
2023-02-19T06:15:27.056Z,0.70
2023-02-19T06:18:19.601Z,0.60
2023-02-19T06:21:09.351Z,0.60
2023-02-19T06:23:57.939Z,0.55
2023-02-19T06:26:45.094Z,0.50
2023-02-19T06:29:32.967Z,0.60
2023-02-19T06:32:27.548Z,0.57
2023-02-19T06:42:09.776Z,1.27
2023-02-19T06:44:56.907Z,0.50
2023-02-19T06:47:53.367Z,0.60
2023-02-19T06:50:43.219Z,0.88
2023-02-19T06:53:39.840Z,2.47
2023-02-19T06:56:42.170Z,0.52
2023-02-19T06:59:32.418Z,0.65
2023-02-19T07:02:31.892Z,0.60
2023-02-19T07:05:25.136Z,0.60
2023-02-19T07:08:18.230Z,0.68
2023-02-19T07:11:18.717Z,1.13
2023-02-19T07:14:21.057Z,0.85
2023-02-19T07:17:12.924Z,1.15
2023-02-19T07:24:13.247Z,0.90
2023-02-19T07:31:11.048Z,0.95
2023-02-19T07:33:58.442Z,1.17
2023-02-19T07:36:45.644Z,1.10
2023-02-19T07:39:32.747Z,1.23
2023-02-19T07:42:19.948Z,1.58
2023-02-19T07:45:07.506Z,1.40
2023-02-19T07:47:57.005Z,2.47
2023-02-19T07:50:55.116Z,1.40
2023-02-19T07:53:42.585Z,2.15
2023-02-19T08:54:05.850Z,2.47
2023-02-19T10:43:55.209Z,9.35
2023-02-19T10:51:45.822Z,13.57
2023-02-19T10:55:23.112Z,4.00
2023-02-19T11:04:02.875Z,5.80
2023-02-19T11:06:08.843Z,4.28
2023-02-19T11:10:00.651Z,9.05
2023-02-19T11:16:44.990Z,6.40
2023-02-19T11:20:07.214Z,11.13
2023-02-19T11:23:10.990Z,6.43
2023-02-19T11:26:06.149Z,4.10
2023-02-19T11:29:07.048Z,2.80
2023-02-19T11:31:57.068Z,5.60
2023-02-19T11:34:51.938Z,6.65
2023-02-19T11:38:10.956Z,7.05
2023-02-19T11:41:14.276Z,6.13
2023-02-19T11:44:47.920Z,7.65
2023-02-19T11:47:54.184Z,5.15
2023-02-19T11:51:00.101Z,9.73
2023-02-19T11:54:11.275Z,5.75
2023-02-19T11:57:27.537Z,6.18
2023-02-19T12:00:44.593Z,5.88
2023-02-19T12:03:46.924Z,6.30
2023-02-19T12:07:00.856Z,7.85
2023-02-19T12:13:52.259Z,4.80
2023-02-19T12:16:50.734Z,5.07
2023-02-19T12:19:45.133Z,7.95
2023-02-19T12:23:12.386Z,7.55
2023-02-19T12:26:21.864Z,4.43
2023-02-19T12:29:34.745Z,4.32
2023-02-19T12:32:38.332Z,4.88
2023-02-19T12:36:29.135Z,3.95
2023-02-19T12:39:35.898Z,5.35
2023-02-19T12:42:40.126Z,4.07
2023-02-19T12:45:40.996Z,5.28
2023-02-19T12:48:30.933Z,3.72
2023-02-19T12:51:23.157Z,3.25
2023-02-19T12:54:32.596Z,1.50
2023-02-19T13:01:12.443Z,3.17
2023-02-19T13:04:31.475Z,7.45
2023-02-19T13:07:37.305Z,4.00
2023-02-19T13:10:53.851Z,4.15
2023-02-19T13:14:03.160Z,1.45
2023-02-19T13:17:04.213Z,4.88
2023-02-19T13:20:01.282Z,4.57
2023-02-19T13:23:26.724Z,3.88
2023-02-19T13:26:41.738Z,3.85
2023-02-19T13:29:58.218Z,7.07
2023-02-19T13:34:02.533Z,6.18
2023-02-19T13:36:50.305Z,4.15
2023-02-19T13:39:51.886Z,3.10
2023-02-19T13:42:40.242Z,8.98
2023-02-19T13:46:37.342Z,5.28
2023-02-19T13:52:44.510Z,6.38
2023-02-19T13:55:57.182Z,4.82
2023-02-19T14:02:43.945Z,3.42
2023-02-19T14:06:12.455Z,5.20
2023-02-19T14:09:02.386Z,3.10
2023-02-19T14:12:07.786Z,4.60
2023-02-19T14:15:02.442Z,4.07
2023-02-19T14:17:57.233Z,6.68
2023-02-19T14:20:45.975Z,5.28
2023-02-19T14:23:44.953Z,11.30
2023-02-19T14:26:35.858Z,8.10
2023-02-19T14:29:32.556Z,5.78
2023-02-19T14:32:27.002Z,5.97
2023-02-19T14:35:29.283Z,8.10
2023-02-19T14:38:33.525Z,4.45
2023-02-19T14:41:27.318Z,6.00
2023-02-19T14:44:41.542Z,6.57
2023-02-19T14:47:38.176Z,4.55
2023-02-19T14:50:54.010Z,8.80
2023-02-19T14:53:54.995Z,6.15
2023-02-19T15:01:14.898Z,5.05
2023-02-19T15:04:06.154Z,3.97
2023-02-19T15:07:30.563Z,6.30
2023-02-19T15:10:21.548Z,3.22
2023-02-19T15:16:26.866Z,3.50
2023-02-19T15:19:20.319Z,6.10
2023-02-19T15:22:12.027Z,4.30
2023-02-19T15:25:07.990Z,4.18
2023-02-19T15:27:55.547Z,9.80
2023-02-19T15:30:44.779Z,6.90
2023-02-19T15:33:32.387Z,7.45
2023-02-19T15:36:41.040Z,5.85
2023-02-19T15:39:50.746Z,8.52
2023-02-19T15:42:59.425Z,6.35
2023-02-19T15:45:48.386Z,8.00
2023-02-19T15:49:08.672Z,5.97
2023-02-19T15:52:05.572Z,5.47
2023-02-19T15:55:17.803Z,2.78
2023-02-19T15:58:30.386Z,5.25
2023-02-19T16:01:39.042Z,10.02
2023-02-19T16:05:12.541Z,8.82
2023-02-19T16:08:46.128Z,6.22
2023-02-19T16:11:37.975Z,7.63
2023-02-19T16:14:34.320Z,9.23
2023-02-19T16:17:28.198Z,8.02
2023-02-19T16:20:22.585Z,3.17
2023-02-19T16:23:17.454Z,6.30
2023-02-19T16:26:05.887Z,9.98
2023-02-19T16:28:56.808Z,8.68
2023-02-19T16:32:07.113Z,8.10
2023-02-19T16:34:57.591Z,5.50
2023-02-19T16:38:15.120Z,10.35
2023-02-19T16:41:16.571Z,13.68
2023-02-19T16:44:27.656Z,9.18
2023-02-19T16:47:34.442Z,6.78
2023-02-19T16:50:33.241Z,9.45
2023-02-19T16:53:46.532Z,11.15
2023-02-19T16:56:36.932Z,8.68
2023-02-19T16:59:24.110Z,7.13
2023-02-19T17:02:21.213Z,9.20
2023-02-19T17:05:11.225Z,10.95
2023-02-19T17:07:58.668Z,14.10
2023-02-19T17:10:48.702Z,11.93
2023-02-19T17:13:36.405Z,11.68
2023-02-19T17:16:27.528Z,10.30
2023-02-19T17:19:19.940Z,13.95
2023-02-19T17:22:07.939Z,11.13
2023-02-19T17:24:55.444Z,14.50
2023-02-19T17:27:42.691Z,8.35
2023-02-19T17:30:32.030Z,11.70
2023-02-19T17:33:21.413Z,13.10
2023-02-19T17:36:16.332Z,9.90
2023-02-19T17:39:07.323Z,7.68
2023-02-19T17:41:54.719Z,7.32
2023-02-19T17:44:48.664Z,7.57
2023-02-19T17:47:51.360Z,4.88
2023-02-19T17:50:38.648Z,7.45
2023-02-19T17:53:27.920Z,8.55
2023-02-19T17:56:21.007Z,13.18
2023-02-19T17:59:08.270Z,9.55
2023-02-19T18:02:09.057Z,13.40
2023-02-19T18:04:56.283Z,6.78
2023-02-19T18:07:43.858Z,8.38
2023-02-19T18:10:34.549Z,10.40
2023-02-19T18:13:21.790Z,8.50
2023-02-19T18:19:16.308Z,8.43
2023-02-19T18:25:04.760Z,9.52
2023-02-19T18:27:52.549Z,9.77
2023-02-19T18:30:40.143Z,11.75
2023-02-19T18:33:27.754Z,8.30
2023-02-19T18:36:14.972Z,8.43
2023-02-19T18:39:02.732Z,10.68
2023-02-19T18:41:51.954Z,4.45
2023-02-19T18:44:39.379Z,12.95
2023-02-19T18:47:28.794Z,8.57
2023-02-19T18:50:18.248Z,7.05
2023-02-19T18:53:07.650Z,11.70
2023-02-19T18:56:02.125Z,11.75
2023-02-19T18:58:50.435Z,12.43
2023-02-19T19:01:40.959Z,11.10
2023-02-19T19:04:28.644Z,9.52
2023-02-19T19:07:15.885Z,9.15
2023-02-19T19:10:03.314Z,6.30
2023-02-19T19:13:09.600Z,16.38
2023-02-19T19:15:56.962Z,9.60
2023-02-19T19:18:44.467Z,7.90
2023-02-19T19:21:31.880Z,6.15
2023-02-19T19:24:19.253Z,11.23
2023-02-19T19:30:21.991Z,7.80
2023-02-19T19:33:14.040Z,9.32
2023-02-19T19:36:01.737Z,13.57
2023-02-19T19:38:49.488Z,7.13
2023-02-19T19:41:46.480Z,9.95
2023-02-19T19:44:45.506Z,11.60
2023-02-19T19:47:35.811Z,7.78
2023-02-19T19:50:23.300Z,9.00
2023-02-19T19:53:10.721Z,11.10
2023-02-19T19:55:58.738Z,11.05
2023-02-19T19:58:47.916Z,11.65
2023-02-19T20:01:38.209Z,14.35
2023-02-19T20:04:26.150Z,8.90
2023-02-19T20:07:13.822Z,10.77
2023-02-19T20:10:01.187Z,8.43
2023-02-19T20:12:48.737Z,12.13
2023-02-19T20:15:36.223Z,13.60
2023-02-19T20:18:25.711Z,8.98
2023-02-19T20:21:13.544Z,9.18
2023-02-19T20:24:12.647Z,8.50
2023-02-19T20:27:03.107Z,12.50
2023-02-19T20:29:50.925Z,14.15
2023-02-19T20:32:38.146Z,9.70
2023-02-19T20:35:35.382Z,10.70
2023-02-19T20:41:27.514Z,12.15
2023-02-19T20:44:15.819Z,7.57
2023-02-19T20:47:03.331Z,8.85
2023-02-19T20:49:52.924Z,8.00
2023-02-19T20:52:40.254Z,8.90
2023-02-19T20:55:28.945Z,8.52
2023-02-19T20:58:16.497Z,9.48
2023-02-19T21:01:06.257Z,10.10
2023-02-19T21:03:54.203Z,9.85
2023-02-19T21:06:43.121Z,12.80
2023-02-19T21:09:30.736Z,15.43
2023-02-19T21:12:19.083Z,12.25
2023-02-19T21:15:09.802Z,10.02
2023-02-19T21:17:57.258Z,11.45
2023-02-19T21:20:44.577Z,8.65
2023-02-19T21:23:32.257Z,11.77
2023-02-19T21:26:20.293Z,14.68
2023-02-19T21:29:10.999Z,10.13
2023-02-19T21:31:59.077Z,11.18
2023-02-19T21:34:46.989Z,9.43
2023-02-19T21:37:34.636Z,11.45
2023-02-19T21:40:23.484Z,11.80
2023-02-19T21:43:12.791Z,10.25
2023-02-19T21:46:03.532Z,15.63
2023-02-19T21:48:52.673Z,9.80
2023-02-19T21:51:42.152Z,11.60
2023-02-19T21:54:29.683Z,11.43
2023-02-19T21:57:17.311Z,9.57
2023-02-19T22:00:06.127Z,13.73
2023-02-19T22:02:53.366Z,14.15
2023-02-19T22:05:40.584Z,14.38
2023-02-19T22:08:27.919Z,14.15
2023-02-19T22:11:16.197Z,7.00
2023-02-19T22:14:04.440Z,7.53
2023-02-19T22:16:52.539Z,8.68
2023-02-19T22:19:42.298Z,10.40
2023-02-19T22:22:29.803Z,9.00
2023-02-19T22:25:19.440Z,11.38
2023-02-19T22:28:08.028Z,10.52
2023-02-19T22:30:57.340Z,12.73
2023-02-19T22:33:44.747Z,12.55
2023-02-19T22:36:37.349Z,9.30
2023-02-19T22:42:15.476Z,10.25
2023-02-19T22:45:02.818Z,12.52
2023-02-19T22:47:49.906Z,10.30
2023-02-19T22:50:39.338Z,12.48
2023-02-19T22:53:26.538Z,14.27
2023-02-19T22:56:17.732Z,14.40
2023-02-19T22:59:04.936Z,12.18
2023-02-19T23:01:52.776Z,11.65
2023-02-19T23:04:39.891Z,13.85
2023-02-19T23:07:27.111Z,10.20
2023-02-19T23:10:14.576Z,12.65
2023-02-19T23:13:01.809Z,10.82
2023-02-19T23:15:49.047Z,14.35
2023-02-19T23:18:36.376Z,10.70
2023-02-19T23:21:24.943Z,12.95
2023-02-19T23:24:16.087Z,8.35
2023-02-19T23:27:04.707Z,13.48
2023-02-19T23:29:54.268Z,12.73
2023-02-19T23:32:41.653Z,17.77
2023-02-19T23:35:28.900Z,14.63
2023-02-19T23:38:18.584Z,13.63
2023-02-19T23:41:11.283Z,13.77
2023-02-19T23:46:45.904Z,13.45
2023-02-19T23:49:33.042Z,12.43
2023-02-19T23:52:20.313Z,9.45
2023-02-19T23:55:08.052Z,13.35
2023-02-19T23:57:57.426Z,13.35
